Time;durP1;ratioP1;P1;durP2;ratioP2;P2;SDS_P1;SDS_P2;PMS_P1;PMS_P2;Temp;Humidity;BMP_temperature;BMP_pressure;BME280_temperature;BME280_humidity;BME280_pressure;Samples;Min_cycle;Max_cycle;Signal;HPM_P1;HPM_P2
2023/06/10 00:00:05;;;;;;;33.08;21.60;;;;;;;;;;4965222;28;20042;-66
2023/06/10 00:02:31;;;;;;;31.98;20.60;;;;;;;;;;4963309;28;20054;-65
2023/06/10 00:04:58;;;;;;;28.92;20.60;;;;;;;;;;4963431;28;20121;-67
2023/06/10 00:07:24;;;;;;;30.58;20.45;;;;;;;;;;4948204;28;20138;-66
2023/06/10 00:09:51;;;;;;;30.90;20.23;;;;;;;;;;4965257;28;20070;-66
2023/06/10 00:12:20;;;;;;;31.52;20.45;;;;;;;;;;4967867;28;20998;-66
2023/06/10 00:14:48;;;;;;;29.27;20.15;;;;;;;;;;4964549;28;20514;-65
2023/06/10 00:17:15;;;;;;;31.80;19.55;;;;;;;;;;4967934;28;20039;-65
2023/06/10 00:19:41;;;;;;;28.95;19.45;;;;;;;;;;4966072;28;20049;-66
2023/06/10 00:22:10;;;;;;;30.20;18.73;;;;;;;;;;4965871;28;20046;-67
2023/06/10 00:24:37;;;;;;;67.78;20.42;;;;;;;;;;4964643;28;20047;-66
2023/06/10 00:27:05;;;;;;;34.80;17.25;;;;;;;;;;4963436;28;21507;-66
2023/06/10 00:29:32;;;;;;;31.48;15.70;;;;;;;;;;4963767;28;20042;-66
2023/06/10 00:31:58;;;;;;;35.60;15.23;;;;;;;;;;4965243;28;20042;-66
2023/06/10 00:34:25;;;;;;;35.25;15.27;;;;;;;;;;4965510;28;20042;-65
2023/06/10 00:36:51;;;;;;;39.22;14.75;;;;;;;;;;4945822;28;20134;-66
2023/06/10 00:39:18;;;;;;;30.38;13.98;;;;;;;;;;4979249;28;20038;-66
2023/06/10 00:41:45;;;;;;;33.95;14.00;;;;;;;;;;4962102;28;20507;-66
2023/06/10 00:44:12;;;;;;;21.45;13.27;;;;;;;;;;4964785;28;20110;-66
2023/06/10 00:46:39;;;;;;;21.70;12.65;;;;;;;;;;4966696;28;20038;-66
2023/06/10 00:49:06;;;;;;;26.00;12.90;;;;;;;;;;4949452;28;20105;-66
2023/06/10 00:51:33;;;;;;;19.70;12.68;;;;;;;;;;4947569;28;20066;-65
2023/06/10 00:53:59;;;;;;;29.10;12.43;;;;;;;;;;4965014;28;22079;-65
2023/06/10 00:56:26;;;;;;;17.85;12.07;;;;;;;;;;4940601;28;20050;-65
2023/06/10 00:58:53;;;;;;;18.23;12.00;;;;;;;;;;4964266;28;20418;-66
2023/06/10 01:01:20;;;;;;;22.65;11.15;;;;;;;;;;4954612;28;20050;-66
2023/06/10 01:03:47;;;;;;;15.68;11.13;;;;;;;;;;4953233;28;20049;-65
2023/06/10 01:06:31;;;;;;;16.23;9.70;;;;;;;;;;4958807;28;20045;-66
2023/06/10 01:09:01;;;;;;;19.23;10.77;;;;;;;;;;4964418;28;20418;-62
2023/06/10 01:11:35;;;;;;;19.42;10.48;;;;;;;;;;4965064;28;20038;-64
2023/06/10 01:14:03;;;;;;;15.77;10.18;;;;;;;;;;4966064;28;20601;-66
2023/06/10 01:16:30;;;;;;;15.98;9.70;;;;;;;;;;4966040;28;20148;-65
2023/06/10 01:18:57;;;;;;;14.27;9.32;;;;;;;;;;4968258;28;20039;-65
2023/06/10 01:21:24;;;;;;;15.25;9.77;;;;;;;;;;4966699;28;20071;-65
2023/06/10 01:23:53;;;;;;;13.70;9.35;;;;;;;;;;4969056;28;20057;-63
2023/06/10 01:26:20;;;;;;;15.48;9.50;;;;;;;;;;4968602;28;20038;-61
2023/06/10 01:28:53;;;;;;;14.02;9.85;;;;;;;;;;4967530;28;20038;-63
2023/06/10 01:31:23;;;;;;;18.55;10.05;;;;;;;;;;4968585;28;20745;-63
2023/06/10 01:33:52;;;;;;;15.35;9.43;;;;;;;;;;4969430;28;20050;-64
2023/06/10 01:36:20;;;;;;;15.52;9.85;;;;;;;;;;4970282;28;20042;-65
2023/06/10 01:38:47;;;;;;;17.65;9.50;;;;;;;;;;4968122;28;20136;-65
2023/06/10 01:41:14;;;;;;;15.13;10.00;;;;;;;;;;4950260;28;23490;-64
2023/06/10 01:43:43;;;;;;;16.55;10.10;;;;;;;;;;4944376;28;20093;-64
2023/06/10 01:46:10;;;;;;;17.45;9.57;;;;;;;;;;4966995;28;20074;-62
2023/06/10 01:48:38;;;;;;;19.13;11.10;;;;;;;;;;4966486;28;20038;-65
2023/06/10 01:51:05;;;;;;;16.85;9.55;;;;;;;;;;4967077;28;20046;-66
2023/06/10 01:53:32;;;;;;;16.25;10.73;;;;;;;;;;4966977;28;20031;-65
2023/06/10 01:55:58;;;;;;;19.23;10.15;;;;;;;;;;4967152;28;20133;-63
2023/06/10 01:58:25;;;;;;;15.35;9.45;;;;;;;;;;4965667;28;20146;-64
2023/06/10 02:00:52;;;;;;;25.80;10.63;;;;;;;;;;4951423;28;20049;-65
2023/06/10 02:03:18;;;;;;;16.50;10.02;;;;;;;;;;4968996;28;20049;-64
2023/06/10 02:05:45;;;;;;;14.77;9.50;;;;;;;;;;4948603;28;20046;-63
2023/06/10 02:08:12;;;;;;;17.30;10.07;;;;;;;;;;4966940;28;20133;-64
2023/06/10 02:10:38;;;;;;;16.85;10.73;;;;;;;;;;4966982;28;20277;-64
2023/06/10 02:13:05;;;;;;;23.75;10.45;;;;;;;;;;4966657;28;20065;-64
2023/06/10 02:15:32;;;;;;;27.17;11.27;;;;;;;;;;4965929;28;20053;-65
2023/06/10 02:17:58;;;;;;;16.65;10.43;;;;;;;;;;4965636;28;20270;-64
2023/06/10 02:20:25;;;;;;;16.63;10.63;;;;;;;;;;4966346;28;20486;-64
2023/06/10 02:22:52;;;;;;;15.07;9.52;;;;;;;;;;4965219;28;20047;-65
2023/06/10 02:25:18;;;;;;;15.40;9.60;;;;;;;;;;4966497;28;20066;-65
2023/06/10 02:27:45;;;;;;;17.95;10.13;;;;;;;;;;4964997;28;20030;-64
2023/06/10 02:30:12;;;;;;;16.75;10.07;;;;;;;;;;4947973;28;20035;-63
2023/06/10 02:32:39;;;;;;;15.38;9.88;;;;;;;;;;4951729;28;20039;-67
2023/06/10 02:35:06;;;;;;;15.80;9.40;;;;;;;;;;4967888;28;20118;-68
2023/06/10 02:37:32;;;;;;;15.02;9.82;;;;;;;;;;4967575;28;21417;-64
2023/06/10 02:39:59;;;;;;;18.20;10.55;;;;;;;;;;4968780;28;20105;-64
2023/06/10 02:42:26;;;;;;;17.10;10.43;;;;;;;;;;4951531;28;20078;-66
2023/06/10 02:44:54;;;;;;;16.13;10.05;;;;;;;;;;4958538;28;21384;-64
2023/06/10 02:47:21;;;;;;;20.08;10.68;;;;;;;;;;4966069;28;20038;-66
2023/06/10 02:49:47;;;;;;;17.52;10.25;;;;;;;;;;4967072;28;20315;-65
2023/06/10 02:52:14;;;;;;;15.55;9.70;;;;;;;;;;4964882;28;20149;-65
2023/06/10 02:54:41;;;;;;;15.63;9.85;;;;;;;;;;4965576;28;20065;-67
2023/06/10 02:57:07;;;;;;;18.08;10.77;;;;;;;;;;4947989;28;20046;-65
2023/06/10 02:59:34;;;;;;;16.58;10.27;;;;;;;;;;4965754;28;20047;-65
2023/06/10 03:02:01;;;;;;;16.25;10.23;;;;;;;;;;4966798;28;20137;-64
2023/06/10 03:04:28;;;;;;;16.13;10.40;;;;;;;;;;4967422;28;20120;-63
2023/06/10 03:06:55;;;;;;;22.13;10.75;;;;;;;;;;4945762;28;20490;-64
2023/06/10 03:09:22;;;;;;;19.23;10.68;;;;;;;;;;4967198;28;20065;-66
2023/06/10 03:11:49;;;;;;;17.38;10.40;;;;;;;;;;4969869;28;20038;-67
2023/06/10 03:14:15;;;;;;;19.55;10.57;;;;;;;;;;4968160;28;21192;-64
2023/06/10 03:16:43;;;;;;;19.88;10.45;;;;;;;;;;4964908;28;20043;-66
2023/06/10 03:19:09;;;;;;;17.70;10.13;;;;;;;;;;4968236;28;20038;-67
2023/06/10 03:21:37;;;;;;;20.38;10.80;;;;;;;;;;4965003;28;20579;-66
2023/06/10 03:24:04;;;;;;;16.80;10.38;;;;;;;;;;4956895;28;20061;-66
2023/06/10 03:26:30;;;;;;;16.60;9.73;;;;;;;;;;4961823;28;20130;-65
2023/06/10 03:28:57;;;;;;;20.35;10.00;;;;;;;;;;4959168;28;20129;-65
2023/06/10 03:31:24;;;;;;;16.73;10.57;;;;;;;;;;4965060;28;20077;-64
2023/06/10 03:33:51;;;;;;;17.75;9.93;;;;;;;;;;4965841;28;20038;-63
2023/06/10 03:36:17;;;;;;;15.45;9.85;;;;;;;;;;4939562;28;20403;-63
2023/06/10 03:38:44;;;;;;;16.20;9.95;;;;;;;;;;4963211;28;20042;-65
2023/06/10 03:41:11;;;;;;;15.32;8.65;;;;;;;;;;4964381;28;20057;-64
2023/06/10 03:43:40;;;;;;;14.88;8.73;;;;;;;;;;4964158;28;20046;-63
2023/06/10 03:46:07;;;;;;;16.23;8.40;;;;;;;;;;4965503;28;20106;-63
2023/06/10 03:48:34;;;;;;;15.77;8.75;;;;;;;;;;4963728;28;20419;-63
2023/06/10 03:51:00;;;;;;;18.98;8.50;;;;;;;;;;4961047;28;20054;-63
2023/06/10 03:53:27;;;;;;;15.10;7.93;;;;;;;;;;4963072;28;20138;-62
2023/06/10 03:55:54;;;;;;;12.38;8.13;;;;;;;;;;4946290;28;20045;-63
2023/06/10 03:58:21;;;;;;;14.00;8.00;;;;;;;;;;4963336;28;20078;-66
2023/06/10 04:00:49;;;;;;;15.57;8.15;;;;;;;;;;4946105;28;20038;-62
2023/06/10 04:03:16;;;;;;;17.77;9.10;;;;;;;;;;4964039;28;20057;-62
2023/06/10 04:05:42;;;;;;;17.63;8.82;;;;;;;;;;4961557;28;20741;-64
2023/06/10 04:08:09;;;;;;;17.83;8.70;;;;;;;;;;4963997;28;20438;-63
2023/06/10 04:10:36;;;;;;;14.38;8.30;;;;;;;;;;4953121;28;20034;-64
2023/06/10 04:13:03;;;;;;;16.52;8.82;;;;;;;;;;4964784;28;20541;-62
2023/06/10 04:15:32;;;;;;;15.88;9.05;;;;;;;;;;4961857;28;20550;-63
2023/06/10 04:18:00;;;;;;;15.80;8.85;;;;;;;;;;4963740;28;20042;-62
2023/06/10 04:20:26;;;;;;;13.85;8.00;;;;;;;;;;4962218;28;20402;-66
2023/06/10 04:22:53;;;;;;;14.30;8.50;;;;;;;;;;4962772;28;20114;-62
2023/06/10 04:25:20;;;;;;;12.73;7.70;;;;;;;;;;4962289;28;20715;-63
2023/06/10 04:27:46;;;;;;;15.05;8.60;;;;;;;;;;4962680;28;20050;-63
2023/06/10 04:30:13;;;;;;;16.63;8.50;;;;;;;;;;4962071;28;20478;-62
2023/06/10 04:32:40;;;;;;;16.80;9.00;;;;;;;;;;4961602;28;20046;-63
2023/06/10 04:35:07;;;;;;;16.67;9.02;;;;;;;;;;4959278;28;20115;-63
2023/06/10 04:37:33;;;;;;;14.52;8.68;;;;;;;;;;4958641;28;20043;-63
2023/06/10 04:40:00;;;;;;;14.90;8.65;;;;;;;;;;4961604;28;20038;-64
2023/06/10 04:42:27;;;;;;;14.65;8.35;;;;;;;;;;4965166;28;20108;-63
2023/06/10 04:44:53;;;;;;;15.13;8.68;;;;;;;;;;4966312;28;20046;-66
2023/06/10 04:47:20;;;;;;;15.85;9.15;;;;;;;;;;4966079;28;20038;-64
2023/06/10 04:49:46;;;;;;;15.57;9.25;;;;;;;;;;4966092;28;20057;-63
2023/06/10 04:52:13;;;;;;;16.20;9.32;;;;;;;;;;4952524;28;20118;-62
2023/06/10 04:54:40;;;;;;;16.27;8.90;;;;;;;;;;4967017;28;20131;-61
2023/06/10 04:57:07;;;;;;;15.82;9.48;;;;;;;;;;4966565;28;20058;-62
2023/06/10 04:59:37;;;;;;;17.35;9.77;;;;;;;;;;4968411;28;20039;-62
2023/06/10 05:02:04;;;;;;;17.02;9.13;;;;;;;;;;4967737;28;20276;-61
2023/06/10 05:04:31;;;;;;;16.13;9.25;;;;;;;;;;4968196;28;20064;-61
2023/06/10 05:06:57;;;;;;;18.35;10.10;;;;;;;;;;4966018;28;20117;-64
2023/06/10 05:09:25;;;;;;;17.33;9.38;;;;;;;;;;4967649;28;20034;-63
2023/06/10 05:11:53;;;;;;;18.52;9.80;;;;;;;;;;4967309;28;20079;-61
2023/06/10 05:14:20;;;;;;;23.15;10.23;;;;;;;;;;4967796;28;20094;-64
2023/06/10 05:16:47;;;;;;;17.05;8.95;;;;;;;;;;4966139;28;20049;-64
2023/06/10 05:19:16;;;;;;;17.40;9.50;;;;;;;;;;4968501;28;21646;-63
2023/06/10 05:21:43;;;;;;;18.17;9.43;;;;;;;;;;4966694;28;20696;-65
2023/06/10 05:24:09;;;;;;;18.95;8.98;;;;;;;;;;4950953;28;20152;-62
2023/06/10 05:26:40;;;;;;;18.98;9.00;;;;;;;;;;4964785;28;20042;-61
2023/06/10 05:29:11;;;;;;;16.17;9.80;;;;;;;;;;4967897;28;20045;-61
2023/06/10 05:31:37;;;;;;;22.42;10.23;;;;;;;;;;4965413;28;20534;-64
2023/06/10 05:34:05;;;;;;;21.40;11.77;;;;;;;;;;4942791;28;20038;-62
2023/06/10 05:36:32;;;;;;;18.13;10.52;;;;;;;;;;4961415;28;20140;-63
2023/06/10 05:38:59;;;;;;;20.08;9.82;;;;;;;;;;4966110;28;20038;-62
2023/06/10 05:41:26;;;;;;;17.55;9.77;;;;;;;;;;4965345;28;20099;-61
2023/06/10 05:43:52;;;;;;;18.65;10.65;;;;;;;;;;4965259;28;20455;-68
2023/06/10 05:46:20;;;;;;;22.05;10.15;;;;;;;;;;4966277;28;20671;-61
2023/06/10 05:48:47;;;;;;;20.88;10.07;;;;;;;;;;4963460;28;20134;-65
2023/06/10 05:51:13;;;;;;;20.77;9.57;;;;;;;;;;4948124;28;20101;-63
2023/06/10 05:53:40;;;;;;;18.92;9.93;;;;;;;;;;4964578;28;20118;-62
2023/06/10 05:56:06;;;;;;;18.40;9.98;;;;;;;;;;4965455;28;20113;-63
2023/06/10 05:58:33;;;;;;;29.02;10.55;;;;;;;;;;4966771;28;20790;-63
2023/06/10 06:01:00;;;;;;;19.30;10.77;;;;;;;;;;4949755;28;20061;-61
2023/06/10 06:03:28;;;;;;;20.52;10.20;;;;;;;;;;4950420;28;20379;-61
2023/06/10 06:05:55;;;;;;;20.67;9.90;;;;;;;;;;4964815;28;20650;-61
2023/06/10 06:08:21;;;;;;;18.90;10.50;;;;;;;;;;4964529;28;20039;-63
2023/06/10 06:10:49;;;;;;;22.52;10.13;;;;;;;;;;4950064;28;20660;-61
2023/06/10 06:13:16;;;;;;;20.80;10.20;;;;;;;;;;4966229;28;20105;-61
2023/06/10 06:15:42;;;;;;;24.40;10.45;;;;;;;;;;4963356;28;20043;-62
2023/06/10 06:18:09;;;;;;;21.85;11.00;;;;;;;;;;4966409;28;20048;-62
2023/06/10 06:20:36;;;;;;;20.15;10.07;;;;;;;;;;4963279;28;20041;-61
2023/06/10 06:23:02;;;;;;;23.40;10.43;;;;;;;;;;4967603;28;20475;-62
2023/06/10 06:25:29;;;;;;;21.00;10.70;;;;;;;;;;4943662;28;20109;-61
2023/06/10 06:27:55;;;;;;;21.73;9.95;;;;;;;;;;4965885;28;20129;-61
2023/06/10 06:30:22;;;;;;;21.75;10.18;;;;;;;;;;4966322;28;20041;-63
2023/06/10 06:32:49;;;;;;;19.08;10.20;;;;;;;;;;4964380;28;20089;-62
2023/06/10 06:35:15;;;;;;;17.75;10.30;;;;;;;;;;4948679;28;20157;-62
2023/06/10 06:37:42;;;;;;;22.58;10.45;;;;;;;;;;4965231;28;20133;-64
2023/06/10 06:40:09;;;;;;;20.15;10.18;;;;;;;;;;4966230;28;20038;-65
2023/06/10 06:42:35;;;;;;;18.70;10.13;;;;;;;;;;4966484;28;20049;-62
2023/06/10 06:45:02;;;;;;;19.73;10.48;;;;;;;;;;4964561;28;20062;-64
2023/06/10 06:47:29;;;;;;;20.05;10.98;;;;;;;;;;4965365;28;20057;-62
2023/06/10 06:49:55;;;;;;;19.10;10.02;;;;;;;;;;4964461;28;20184;-63
2023/06/10 06:52:22;;;;;;;20.60;10.95;;;;;;;;;;4965084;28;20043;-64
2023/06/10 06:54:49;;;;;;;19.50;10.77;;;;;;;;;;4948559;28;20104;-63
2023/06/10 06:57:15;;;;;;;23.55;10.45;;;;;;;;;;4965124;28;20049;-63
2023/06/10 06:59:42;;;;;;;21.33;10.98;;;;;;;;;;4967117;28;20041;-63
2023/06/10 07:02:09;;;;;;;22.33;10.30;;;;;;;;;;4969202;28;20061;-62
2023/06/10 07:04:35;;;;;;;29.15;11.30;;;;;;;;;;4966965;28;20910;-68
2023/06/10 07:07:02;;;;;;;21.52;10.32;;;;;;;;;;4968286;28;20085;-63
2023/06/10 07:09:29;;;;;;;20.65;10.90;;;;;;;;;;4964452;28;20070;-63
2023/06/10 07:11:56;;;;;;;20.67;10.77;;;;;;;;;;4968345;28;20133;-64
2023/06/10 07:14:22;;;;;;;18.63;10.23;;;;;;;;;;4964547;28;20046;-65
2023/06/10 07:16:49;;;;;;;20.13;10.80;;;;;;;;;;4964564;28;20170;-62
2023/06/10 07:19:16;;;;;;;20.95;10.65;;;;;;;;;;4949478;28;20042;-63
2023/06/10 07:21:42;;;;;;;22.20;12.32;;;;;;;;;;4962781;28;20073;-65
2023/06/10 07:24:09;;;;;;;21.98;11.05;;;;;;;;;;4963596;28;20045;-63
2023/06/10 07:26:36;;;;;;;22.83;13.25;;;;;;;;;;4941508;28;20038;-62
2023/06/10 07:29:02;;;;;;;24.73;12.50;;;;;;;;;;4965172;28;20053;-63
2023/06/10 07:31:29;;;;;;;22.27;12.57;;;;;;;;;;4962679;28;20046;-62
2023/06/10 07:33:55;;;;;;;26.33;12.00;;;;;;;;;;4965617;28;20038;-61
2023/06/10 07:36:22;;;;;;;24.83;12.80;;;;;;;;;;4949951;28;20076;-64
2023/06/10 07:38:49;;;;;;;22.35;12.70;;;;;;;;;;4950400;28;20040;-62
2023/06/10 07:41:17;;;;;;;20.95;11.93;;;;;;;;;;4964461;28;20050;-63
2023/06/10 07:43:44;;;;;;;28.02;12.75;;;;;;;;;;4964019;28;20760;-68
2023/06/10 07:46:11;;;;;;;22.10;11.45;;;;;;;;;;4963800;28;20042;-63
2023/06/10 07:48:38;;;;;;;23.80;12.85;;;;;;;;;;4974191;28;20493;-62
2023/06/10 07:51:05;;;;;;;26.75;13.02;;;;;;;;;;4975372;28;20104;-63
2023/06/10 07:53:31;;;;;;;24.63;13.43;;;;;;;;;;4975361;28;20042;-66
2023/06/10 07:55:58;;;;;;;22.15;12.20;;;;;;;;;;4975745;28;20478;-63
2023/06/10 07:58:24;;;;;;;20.63;12.07;;;;;;;;;;4976191;28;20038;-63
2023/06/10 08:00:51;;;;;;;20.33;12.23;;;;;;;;;;4977062;28;20034;-65
2023/06/10 08:03:18;;;;;;;25.13;12.02;;;;;;;;;;4959781;28;20121;-63
2023/06/10 08:05:44;;;;;;;22.33;11.38;;;;;;;;;;4973999;28;20042;-63
2023/06/10 08:08:11;;;;;;;19.08;11.05;;;;;;;;;;4975702;28;20089;-64
2023/06/10 08:10:37;;;;;;;19.92;11.38;;;;;;;;;;4977123;28;20053;-62
2023/06/10 08:13:04;;;;;;;21.65;11.20;;;;;;;;;;4960683;28;20150;-63
2023/06/10 08:15:31;;;;;;;19.52;11.68;;;;;;;;;;4958331;28;20049;-62
2023/06/10 08:17:57;;;;;;;19.85;11.43;;;;;;;;;;4952035;28;20042;-63
2023/06/10 08:20:24;;;;;;;20.95;11.50;;;;;;;;;;4975843;28;20035;-63
2023/06/10 08:22:51;;;;;;;19.85;11.02;;;;;;;;;;4975534;28;20511;-64
2023/06/10 08:25:17;;;;;;;20.60;11.98;;;;;;;;;;4974743;28;20042;-62
2023/06/10 08:27:44;;;;;;;18.00;10.82;;;;;;;;;;4974774;28;20799;-61
2023/06/10 08:30:12;;;;;;;17.77;10.50;;;;;;;;;;4976610;28;20045;-62
2023/06/10 08:32:39;;;;;;;18.77;11.05;;;;;;;;;;4958986;28;20520;-63
2023/06/10 08:35:06;;;;;;;21.05;11.60;;;;;;;;;;4976404;28;20042;-61
2023/06/10 08:37:33;;;;;;;19.58;10.57;;;;;;;;;;4977134;28;20388;-63
2023/06/10 08:39:59;;;;;;;18.13;10.82;;;;;;;;;;4958558;28;20039;-62
2023/06/10 08:42:26;;;;;;;16.92;10.20;;;;;;;;;;4958540;28;20070;-61
2023/06/10 08:44:58;;;;;;;18.80;10.63;;;;;;;;;;4976323;28;20057;-63
2023/06/10 08:47:27;;;;;;;20.10;10.40;;;;;;;;;;4975832;28;20094;-63
2023/06/10 08:49:56;;;;;;;17.77;10.73;;;;;;;;;;4959881;28;20050;-61
2023/06/10 08:52:43;;;;;;;18.95;10.63;;;;;;;;;;4925018;28;20126;-61
2023/06/10 08:55:17;;;;;;;20.83;11.13;;;;;;;;;;4927258;28;20526;-61
2023/06/10 08:57:45;;;;;;;18.85;10.23;;;;;;;;;;4926412;28;20046;-62
2023/06/10 09:00:12;;;;;;;17.05;10.90;;;;;;;;;;4928567;28;21167;-63
2023/06/10 09:02:39;;;;;;;17.70;10.48;;;;;;;;;;4927806;28;20066;-61
2023/06/10 09:05:06;;;;;;;17.75;9.95;;;;;;;;;;4925385;28;20038;-61
2023/06/10 09:07:36;;;;;;;20.58;10.75;;;;;;;;;;4927796;28;20151;-60
2023/06/10 09:10:06;;;;;;;19.25;10.43;;;;;;;;;;4927685;28;20035;-60
2023/06/10 09:12:34;;;;;;;21.67;11.02;;;;;;;;;;4927264;28;20151;-61
2023/06/10 09:15:01;;;;;;;17.40;10.55;;;;;;;;;;4926960;28;20571;-62
2023/06/10 09:17:28;;;;;;;18.35;11.00;;;;;;;;;;4923509;28;20118;-62
2023/06/10 09:19:56;;;;;;;16.17;9.93;;;;;;;;;;4924785;28;20062;-60
2023/06/10 09:22:25;;;;;;;19.05;10.80;;;;;;;;;;4934498;28;20058;-65
2023/06/10 09:24:51;;;;;;;17.13;10.13;;;;;;;;;;4953266;28;20138;-61
2023/06/10 09:27:18;;;;;;;19.60;10.93;;;;;;;;;;4921992;28;20124;-62
2023/06/10 09:29:48;;;;;;;21.35;11.43;;;;;;;;;;4949715;28;20038;-61
2023/06/10 09:32:14;;;;;;;20.35;10.50;;;;;;;;;;4979164;28;20062;-62
2023/06/10 09:34:41;;;;;;;19.52;10.88;;;;;;;;;;4979260;28;20042;-63
2023/06/10 09:37:11;;;;;;;18.15;10.55;;;;;;;;;;4980833;28;20038;-63
2023/06/10 09:39:39;;;;;;;19.02;11.18;;;;;;;;;;4959632;28;20153;-62
2023/06/10 09:42:25;;;;;;;21.38;11.48;;;;;;;;;;4977975;28;20066;-64
2023/06/10 09:44:53;;;;;;;21.60;10.90;;;;;;;;;;4977479;28;20049;-60
2023/06/10 09:47:23;;;;;;;18.00;10.70;;;;;;;;;;4979013;28;20047;-62
2023/06/10 09:49:53;;;;;;;19.65;10.85;;;;;;;;;;4962212;28;20042;-62
2023/06/10 09:52:26;;;;;;;18.27;10.57;;;;;;;;;;4979596;28;20038;-68
2023/06/10 09:54:53;;;;;;;;;;;;;;;;;;4979042;28;20123;-61
2023/06/10 09:57:20;;;;;;;19.65;11.00;;;;;;;;;;4978382;28;19928;-62
2023/06/10 09:59:47;;;;;;;19.00;9.60;;;;;;;;;;4980526;28;20050;-63
2023/06/10 10:02:17;;;;;;;19.17;10.90;;;;;;;;;;4979945;28;20056;-62
2023/06/10 10:04:44;;;;;;;17.42;10.20;;;;;;;;;;4977140;28;20101;-62
2023/06/10 10:07:11;;;;;;;18.85;10.88;;;;;;;;;;4979352;28;20037;-63
2023/06/10 10:09:41;;;;;;;19.52;10.50;;;;;;;;;;4960754;28;20054;-62
2023/06/10 10:12:13;;;;;;;18.48;10.35;;;;;;;;;;4978274;28;20038;-60
2023/06/10 10:14:40;;;;;;;21.20;11.25;;;;;;;;;;4976881;28;20046;-60
2023/06/10 10:17:11;;;;;;;17.70;10.98;;;;;;;;;;4977222;28;20039;-60
2023/06/10 10:19:51;;;;;;;20.92;11.05;;;;;;;;;;4993125;28;20062;-60
2023/06/10 10:22:30;;;;;;;18.83;10.95;;;;;;;;;;4978415;28;20047;-61
2023/06/10 10:24:58;;;;;;;20.90;10.63;;;;;;;;;;4977468;28;20046;-61
2023/06/10 10:27:28;;;;;;;22.77;11.75;;;;;;;;;;4977963;28;20371;-61
2023/06/10 10:29:55;;;;;;;21.70;11.73;;;;;;;;;;4980256;28;20638;-62
2023/06/10 10:32:25;;;;;;;22.40;11.60;;;;;;;;;;4976550;28;20064;-61
2023/06/10 10:35:18;;;;;;;20.48;11.85;;;;;;;;;;4976230;28;20180;-64
2023/06/10 10:37:46;;;;;;;19.60;11.50;;;;;;;;;;4972620;28;20073;-62
2023/06/10 10:40:13;;;;;;;23.70;13.20;;;;;;;;;;4978076;28;20804;-59
2023/06/10 10:42:40;;;;;;;23.40;12.85;;;;;;;;;;4976356;28;20054;-63
2023/06/10 10:45:07;;;;;;;21.10;12.60;;;;;;;;;;4974415;28;20247;-61
2023/06/10 10:47:35;;;;;;;23.83;12.43;;;;;;;;;;4977434;28;20043;-60
2023/06/10 10:50:02;;;;;;;22.67;13.30;;;;;;;;;;4978255;28;20360;-59
2023/06/10 10:52:47;;;;;;;23.88;12.98;;;;;;;;;;4976434;28;20154;-62
2023/06/10 10:55:13;;;;;;;19.77;12.15;;;;;;;;;;4975421;28;20759;-60
2023/06/10 10:57:40;;;;;;;21.98;12.88;;;;;;;;;;4975111;28;20056;-61
2023/06/10 11:00:07;;;;;;;22.75;12.98;;;;;;;;;;4977248;28;20042;-63
2023/06/10 11:02:44;;;;;;;24.50;13.68;;;;;;;;;;4976148;28;20061;-62
2023/06/10 11:05:12;;;;;;;22.52;12.65;;;;;;;;;;4960175;28;20141;-60
2023/06/10 11:07:38;;;;;;;24.10;13.95;;;;;;;;;;4976705;28;20130;-61
2023/06/10 11:10:09;;;;;;;29.23;13.73;;;;;;;;;;4994322;28;20066;-64
2023/06/10 11:12:55;;;;;;;22.38;13.13;;;;;;;;;;4960919;28;20077;-59
2023/06/10 11:15:21;;;;;;;23.83;12.73;;;;;;;;;;4958677;28;20042;-61
2023/06/10 11:18:07;;;;;;;26.65;14.15;;;;;;;;;;4978466;28;20050;-61
2023/06/10 11:20:49;;;;;;;22.90;13.07;;;;;;;;;;4958337;28;20893;-60
2023/06/10 11:23:28;;;;;;;25.75;13.73;;;;;;;;;;4977829;28;20515;-62
2023/06/10 11:26:13;;;;;;;23.50;13.65;;;;;;;;;;4976399;28;20082;-60
2023/06/10 11:28:40;;;;;;;26.83;13.90;;;;;;;;;;4959920;28;20806;-61
2023/06/10 11:31:07;;;;;;;25.08;15.10;;;;;;;;;;4975786;28;20042;-61
2023/06/10 11:33:33;;;;;;;26.13;13.85;;;;;;;;;;4960141;28;20043;-62
2023/06/10 11:36:00;;;;;;;23.00;14.40;;;;;;;;;;4973563;28;20922;-61
2023/06/10 11:38:27;;;;;;;25.75;13.93;;;;;;;;;;4975280;28;20449;-61
2023/06/10 11:40:54;;;;;;;24.20;13.65;;;;;;;;;;4977181;28;20034;-61
2023/06/10 11:43:21;;;;;;;24.85;14.15;;;;;;;;;;4991940;28;20080;-61
2023/06/10 11:45:47;;;;;;;28.50;15.98;;;;;;;;;;4978383;28;20042;-61
2023/06/10 11:48:14;;;;;;;28.38;16.83;;;;;;;;;;4960638;28;20120;-61
2023/06/10 11:50:41;;;;;;;27.05;15.20;;;;;;;;;;4960625;28;20038;-60
2023/06/10 11:53:09;;;;;;;34.42;16.60;;;;;;;;;;4993252;28;20448;-60
2023/06/10 11:55:43;;;;;;;33.35;18.05;;;;;;;;;;4977942;28;20042;-59
2023/06/10 11:58:19;;;;;;;32.28;19.13;;;;;;;;;;4978791;28;20470;-60
2023/06/10 12:00:50;;;;;;;34.78;18.17;;;;;;;;;;4976485;28;20043;-61
2023/06/10 12:03:17;;;;;;;34.53;20.15;;;;;;;;;;4977292;28;20062;-60
2023/06/10 12:05:56;;;;;;;35.58;19.85;;;;;;;;;;4960929;28;20042;-60
2023/06/10 12:08:22;;;;;;;36.50;21.00;;;;;;;;;;4977215;28;20755;-63
2023/06/10 12:10:49;;;;;;;41.67;21.50;;;;;;;;;;4977421;28;20078;-59
2023/06/10 12:13:17;;;;;;;41.28;21.38;;;;;;;;;;4979891;28;20526;-62
2023/06/10 12:15:45;;;;;;;41.25;21.98;;;;;;;;;;4960462;28;20073;-62
2023/06/10 12:18:20;;;;;;;43.78;24.60;;;;;;;;;;4976232;28;20034;-63
2023/06/10 12:20:48;;;;;;;43.08;24.05;;;;;;;;;;4976578;28;20034;-60
2023/06/10 12:23:15;;;;;;;42.78;22.98;;;;;;;;;;4976103;28;20054;-59
2023/06/10 12:25:51;;;;;;;42.95;22.88;;;;;;;;;;4975001;28;20042;-63
2023/06/10 12:28:20;;;;;;;39.88;22.50;;;;;;;;;;4976378;28;20042;-60
2023/06/10 12:30:46;;;;;;;44.47;22.83;;;;;;;;;;4974455;28;20035;-63
2023/06/10 12:33:20;;;;;;;36.80;21.92;;;;;;;;;;4976113;28;20105;-61
2023/06/10 12:35:53;;;;;;;43.50;22.05;;;;;;;;;;4958925;28;20457;-61
2023/06/10 12:38:27;;;;;;;40.53;22.52;;;;;;;;;;4974673;28;20050;-63
2023/06/10 12:40:54;;;;;;;39.88;22.65;;;;;;;;;;4977429;28;20069;-61
2023/06/10 12:43:21;;;;;;;40.60;22.63;;;;;;;;;;4957776;28;20492;-60
2023/06/10 12:45:48;;;;;;;44.65;24.23;;;;;;;;;;4975926;28;20038;-60
2023/06/10 12:48:21;;;;;;;40.05;22.52;;;;;;;;;;4975339;28;20049;-61
2023/06/10 12:50:47;;;;;;;;;;;;;;;;;;4975271;28;20056;-62
2023/06/10 12:53:13;;;;;;;45.05;23.45;;;;;;;;;;4974456;28;19926;-60
2023/06/10 12:55:40;;;;;;;44.95;24.55;;;;;;;;;;4975890;28;20185;-60
2023/06/10 12:58:07;;;;;;;41.42;24.15;;;;;;;;;;4976180;28;20038;-62
2023/06/10 13:00:34;;;;;;;44.45;25.85;;;;;;;;;;4976125;28;20397;-60
2023/06/10 13:03:02;;;;;;;45.65;26.80;;;;;;;;;;4978849;28;20173;-63
2023/06/10 13:05:29;;;;;;;48.10;26.20;;;;;;;;;;4994565;28;20038;-61
2023/06/10 13:07:56;;;;;;;41.83;24.55;;;;;;;;;;4979305;28;20877;-62
2023/06/10 13:10:23;;;;;;;43.28;25.20;;;;;;;;;;4978984;28;20170;-64
2023/06/10 13:12:50;;;;;;;46.45;25.92;;;;;;;;;;4958435;28;20038;-62
2023/06/10 13:15:17;;;;;;;45.50;27.77;;;;;;;;;;4954141;28;20044;-64
2023/06/10 13:17:50;;;;;;;50.90;27.58;;;;;;;;;;4979000;28;20161;-62
2023/06/10 13:20:17;;;;;;;45.72;26.58;;;;;;;;;;4962553;28;20043;-59
2023/06/10 13:22:44;;;;;;;45.28;26.35;;;;;;;;;;4994412;28;20066;-60
2023/06/10 13:25:10;;;;;;;47.42;26.48;;;;;;;;;;4980090;28;20034;-59
2023/06/10 13:27:41;;;;;;;49.53;26.85;;;;;;;;;;4977709;28;20038;-60
2023/06/10 13:30:09;;;;;;;45.38;26.90;;;;;;;;;;4978723;28;20843;-60
2023/06/10 13:32:36;;;;;;;41.13;25.60;;;;;;;;;;4980225;28;20379;-61
2023/06/10 13:35:03;;;;;;;44.15;26.85;;;;;;;;;;4979181;28;20795;-60
2023/06/10 13:37:29;;;;;;;46.47;27.02;;;;;;;;;;4978912;28;20042;-59
2023/06/10 13:39:57;;;;;;;48.50;26.95;;;;;;;;;;4994764;28;20042;-60
2023/06/10 13:42:26;;;;;;;43.65;25.02;;;;;;;;;;4979443;28;20173;-61
2023/06/10 13:44:52;;;;;;;44.03;25.35;;;;;;;;;;4981692;28;20062;-61
2023/06/10 13:47:20;;;;;;;45.80;26.80;;;;;;;;;;4964079;28;20191;-59
2023/06/10 13:49:47;;;;;;;44.17;27.27;;;;;;;;;;4981441;28;20042;-60
2023/06/10 13:52:13;;;;;;;44.58;25.55;;;;;;;;;;4981958;28;20066;-60
2023/06/10 13:54:40;;;;;;;43.30;26.98;;;;;;;;;;4978002;28;20050;-59
2023/06/10 13:57:07;;;;;;;47.70;26.95;;;;;;;;;;4979680;28;20038;-59
2023/06/10 13:59:34;;;;;;;47.90;29.00;;;;;;;;;;4979642;28;20050;-62
2023/06/10 14:02:01;;;;;;;43.63;26.77;;;;;;;;;;4994446;28;20563;-58
2023/06/10 14:04:28;;;;;;;39.85;26.73;;;;;;;;;;4976672;28;20034;-58
2023/06/10 14:06:55;;;;;;;48.38;29.38;;;;;;;;;;4978077;28;20113;-60
2023/06/10 14:09:22;;;;;;;53.13;27.67;;;;;;;;;;4976708;28;20066;-61
2023/06/10 14:11:48;;;;;;;47.90;28.27;;;;;;;;;;4991574;28;20510;-60
2023/06/10 14:14:15;;;;;;;41.45;25.88;;;;;;;;;;4976607;28;20042;-60
2023/06/10 14:16:42;;;;;;;43.97;26.40;;;;;;;;;;4979855;28;20044;-60
2023/06/10 14:19:08;;;;;;;42.47;25.73;;;;;;;;;;4962772;28;20157;-60
2023/06/10 14:21:35;;;;;;;50.22;27.33;;;;;;;;;;4962319;28;20522;-63
2023/06/10 14:24:02;;;;;;;43.92;26.95;;;;;;;;;;4994987;28;20042;-62